Amity Harbor, NY

9:18 PM EDT on July 27, 2016 (GMT -0400)
Lindenhurst Venice | | Change Station

Elev 10 ft 40.67 °N, 73.39 °W | Updated 5 minutes ago

Clear
Clear
77.4 °F
Feels Like 79 °F
N
0.0
Wind Variable Wind from WSW
Gusts 1.0 mph

Today
High -- | Low -- °F
--% Chance of Precip.
Yesterday
High -- | Low -- °F
Precip. -- in
Pressure 29.92 in
Visibility 10.0 miles
Clouds Clear
Heat Index 79 °F
Dew Point 74 °F
Humidity 90%
Rainfall 0.00 in
Snow Depth Not available.
5:46 AM 8:13 PM
Last Quarter, 37% visible
METAR KFRG 280053Z 20008KT 10SM CLR 26/22 A2992 RMK AO2 PK WND 10043/0009 SLP130 T02560217
Pressure 29.92 in
Visibility 10.0 miles
Clouds Clear
Heat Index 79 °F
Dew Point 74 °F
Humidity 90%
Rainfall 0.00 in
Snow Depth Not available.
5:46 AM 8:13 PM
Last Quarter, 37% visible
METAR KFRG 280053Z 20008KT 10SM CLR 26/22 A2992 RMK AO2 PK WND 10043/0009 SLP130 T02560217

10-Day Weather Forecast

Almanac

Astronomy

Jul. 27, 2016 Rise Set
Actual Time
Civil Twilight
Nautical Twilight
Astronomical Twilight
Moon
Length of Visible Light
Length of Day
Tomorrow will be .
, % of the Moon is Illuminated

Today's Extremes

State Highs State Lows

Community

WunderPhotos

Upload Photos

1,927,994 photos uploaded!

WunderBlog® & News

Nearby

Air Quality

  Air Quality AQ Index Pollutant
Not available.

Snow Depth

Station Depth Elevation

Earthquake Activity

City Distance Mag. Time & Date
Minimum magnitude displayed is 2.5.

Coastal Water Temperatures

Place Temperature

Stations

Nearby Weather Stations

Station Location Temp. Windchill Dew Point Humidity Wind Precip. Elev Updated Type
                   

Watches & Warnings

There are currently no watches in effect.